sensor_id;sensor_type;location;lat;lon;timestamp;P1;durP1;ratioP1;P2;durP2;ratioP2
5945;SDS011;2998;48.206;16.394;2023-02-08T00:00:25;21.00;;;11.48;;
5945;SDS011;2998;48.206;16.394;2023-02-08T00:02:53;23.45;;;13.13;;
5945;SDS011;2998;48.206;16.394;2023-02-08T00:05:21;20.58;;;11.88;;
5945;SDS011;2998;48.206;16.394;2023-02-08T00:07:49;24.10;;;11.93;;
5945;SDS011;2998;48.206;16.394;2023-02-08T00:10:17;20.17;;;12.02;;
5945;SDS011;2998;48.206;16.394;2023-02-08T00:12:45;19.13;;;10.98;;
5945;SDS011;2998;48.206;16.394;2023-02-08T00:15:14;18.20;;;10.85;;
5945;SDS011;2998;48.206;16.394;2023-02-08T00:17:42;15.85;;;10.10;;
5945;SDS011;2998;48.206;16.394;2023-02-08T00:20:11;20.05;;;11.50;;
5945;SDS011;2998;48.206;16.394;2023-02-08T00:22:39;18.02;;;11.10;;
5945;SDS011;2998;48.206;16.394;2023-02-08T00:25:07;20.33;;;11.85;;
5945;SDS011;2998;48.206;16.394;2023-02-08T00:27:35;22.40;;;11.10;;
5945;SDS011;2998;48.206;16.394;2023-02-08T00:30:03;18.55;;;10.90;;
5945;SDS011;2998;48.206;16.394;2023-02-08T00:32:33;22.73;;;12.20;;
5945;SDS011;2998;48.206;16.394;2023-02-08T00:35:01;18.33;;;10.50;;
5945;SDS011;2998;48.206;16.394;2023-02-08T00:37:29;17.15;;;10.82;;
5945;SDS011;2998;48.206;16.394;2023-02-08T00:39:57;21.17;;;11.25;;
5945;SDS011;2998;48.206;16.394;2023-02-08T00:42:27;15.52;;;10.50;;
5945;SDS011;2998;48.206;16.394;2023-02-08T00:44:55;19.88;;;11.07;;
5945;SDS011;2998;48.206;16.394;2023-02-08T00:47:24;17.35;;;10.25;;
5945;SDS011;2998;48.206;16.394;2023-02-08T00:49:53;19.27;;;10.77;;
5945;SDS011;2998;48.206;16.394;2023-02-08T00:52:21;25.40;;;14.70;;
5945;SDS011;2998;48.206;16.394;2023-02-08T00:54:49;23.58;;;12.55;;
5945;SDS011;2998;48.206;16.394;2023-02-08T00:57:17;22.23;;;11.63;;
5945;SDS011;2998;48.206;16.394;2023-02-08T00:59:45;20.00;;;12.18;;
5945;SDS011;2998;48.206;16.394;2023-02-08T01:02:13;21.70;;;13.63;;
5945;SDS011;2998;48.206;16.394;2023-02-08T01:04:41;25.55;;;14.02;;
5945;SDS011;2998;48.206;16.394;2023-02-08T01:07:10;21.20;;;12.60;;
5945;SDS011;2998;48.206;16.394;2023-02-08T01:09:38;20.60;;;12.20;;
5945;SDS011;2998;48.206;16.394;2023-02-08T01:12:06;19.35;;;12.00;;
5945;SDS011;2998;48.206;16.394;2023-02-08T01:14:36;21.77;;;12.55;;
5945;SDS011;2998;48.206;16.394;2023-02-08T01:17:04;22.65;;;12.45;;
5945;SDS011;2998;48.206;16.394;2023-02-08T01:19:32;22.00;;;11.18;;
5945;SDS011;2998;48.206;16.394;2023-02-08T01:22:00;24.65;;;11.75;;
5945;SDS011;2998;48.206;16.394;2023-02-08T01:24:29;18.17;;;10.95;;
5945;SDS011;2998;48.206;16.394;2023-02-08T01:26:57;19.55;;;11.60;;
5945;SDS011;2998;48.206;16.394;2023-02-08T01:29:25;17.35;;;11.05;;
5945;SDS011;2998;48.206;16.394;2023-02-08T01:31:53;18.27;;;11.45;;
5945;SDS011;2998;48.206;16.394;2023-02-08T01:34:21;19.40;;;12.82;;
5945;SDS011;2998;48.206;16.394;2023-02-08T01:36:49;18.30;;;12.40;;
5945;SDS011;2998;48.206;16.394;2023-02-08T01:39:17;19.67;;;12.52;;
5945;SDS011;2998;48.206;16.394;2023-02-08T01:41:46;21.05;;;12.55;;
5945;SDS011;2998;48.206;16.394;2023-02-08T01:47:19;23.63;;;13.68;;
5945;SDS011;2998;48.206;16.394;2023-02-08T01:49:47;24.43;;;12.90;;
5945;SDS011;2998;48.206;16.394;2023-02-08T01:52:16;24.05;;;14.43;;
5945;SDS011;2998;48.206;16.394;2023-02-08T01:54:45;24.77;;;12.93;;
5945;SDS011;2998;48.206;16.394;2023-02-08T01:57:16;25.80;;;13.73;;
5945;SDS011;2998;48.206;16.394;2023-02-08T01:59:45;26.00;;;14.20;;
5945;SDS011;2998;48.206;16.394;2023-02-08T02:02:16;30.08;;;15.88;;
5945;SDS011;2998;48.206;16.394;2023-02-08T02:04:46;36.40;;;16.48;;
5945;SDS011;2998;48.206;16.394;2023-02-08T02:07:15;26.73;;;16.17;;
5945;SDS011;2998;48.206;16.394;2023-02-08T02:09:45;27.77;;;14.93;;
5945;SDS011;2998;48.206;16.394;2023-02-08T02:12:17;28.30;;;14.75;;
5945;SDS011;2998;48.206;16.394;2023-02-08T02:14:46;34.17;;;15.37;;
5945;SDS011;2998;48.206;16.394;2023-02-08T02:17:15;25.93;;;13.87;;
5945;SDS011;2998;48.206;16.394;2023-02-08T02:19:47;26.50;;;14.00;;
5945;SDS011;2998;48.206;16.394;2023-02-08T02:25:32;23.50;;;13.10;;
5945;SDS011;2998;48.206;16.394;2023-02-08T02:28:17;24.13;;;12.83;;
5945;SDS011;2998;48.206;16.394;2023-02-08T02:31:09;26.27;;;14.07;;
5945;SDS011;2998;48.206;16.394;2023-02-08T02:34:02;27.35;;;13.65;;
5945;SDS011;2998;48.206;16.394;2023-02-08T02:36:33;25.53;;;12.63;;
5945;SDS011;2998;48.206;16.394;2023-02-08T02:39:06;20.60;;;12.07;;
5945;SDS011;2998;48.206;16.394;2023-02-08T02:41:41;20.02;;;11.85;;
5945;SDS011;2998;48.206;16.394;2023-02-08T02:44:36;21.77;;;13.17;;
5945;SDS011;2998;48.206;16.394;2023-02-08T02:47:09;21.83;;;12.17;;
5945;SDS011;2998;48.206;16.394;2023-02-08T02:49:45;24.03;;;13.23;;
5945;SDS011;2998;48.206;16.394;2023-02-08T02:52:15;22.17;;;13.10;;
5945;SDS011;2998;48.206;16.394;2023-02-08T02:54:46;34.05;;;12.77;;
5945;SDS011;2998;48.206;16.394;2023-02-08T02:57:18;23.10;;;13.35;;
5945;SDS011;2998;48.206;16.394;2023-02-08T02:59:48;20.57;;;13.00;;
5945;SDS011;2998;48.206;16.394;2023-02-08T03:02:18;20.70;;;12.57;;
5945;SDS011;2998;48.206;16.394;2023-02-08T03:04:47;23.45;;;13.07;;
5945;SDS011;2998;48.206;16.394;2023-02-08T03:07:32;24.80;;;13.50;;
5945;SDS011;2998;48.206;16.394;2023-02-08T03:10:12;26.65;;;12.75;;
5945;SDS011;2998;48.206;16.394;2023-02-08T03:12:51;22.23;;;14.13;;
5945;SDS011;2998;48.206;16.394;2023-02-08T03:15:28;22.25;;;13.38;;
5945;SDS011;2998;48.206;16.394;2023-02-08T03:18:01;22.57;;;14.03;;
5945;SDS011;2998;48.206;16.394;2023-02-08T03:20:33;21.77;;;12.70;;
5945;SDS011;2998;48.206;16.394;2023-02-08T03:23:08;21.88;;;13.93;;
5945;SDS011;2998;48.206;16.394;2023-02-08T03:25:44;20.97;;;12.73;;
5945;SDS011;2998;48.206;16.394;2023-02-08T03:28:18;25.93;;;14.57;;
5945;SDS011;2998;48.206;16.394;2023-02-08T03:30:51;25.10;;;14.70;;
5945;SDS011;2998;48.206;16.394;2023-02-08T03:33:27;19.70;;;13.07;;
5945;SDS011;2998;48.206;16.394;2023-02-08T03:36:01;24.23;;;14.30;;
5945;SDS011;2998;48.206;16.394;2023-02-08T03:38:32;24.37;;;13.37;;
5945;SDS011;2998;48.206;16.394;2023-02-08T03:41:03;21.60;;;12.67;;
5945;SDS011;2998;48.206;16.394;2023-02-08T03:43:34;22.17;;;13.23;;
5945;SDS011;2998;48.206;16.394;2023-02-08T03:46:05;21.03;;;13.40;;
5945;SDS011;2998;48.206;16.394;2023-02-08T03:48:37;22.83;;;13.07;;
5945;SDS011;2998;48.206;16.394;2023-02-08T03:51:08;24.17;;;13.83;;
5945;SDS011;2998;48.206;16.394;2023-02-08T03:53:39;25.60;;;14.07;;
5945;SDS011;2998;48.206;16.394;2023-02-08T03:56:08;26.40;;;14.90;;
5945;SDS011;2998;48.206;16.394;2023-02-08T03:58:39;24.90;;;13.43;;
5945;SDS011;2998;48.206;16.394;2023-02-08T04:01:11;24.60;;;13.97;;
5945;SDS011;2998;48.206;16.394;2023-02-08T04:03:42;20.70;;;14.00;;
5945;SDS011;2998;48.206;16.394;2023-02-08T04:06:15;23.83;;;14.27;;
5945;SDS011;2998;48.206;16.394;2023-02-08T04:08:43;26.37;;;14.17;;
5945;SDS011;2998;48.206;16.394;2023-02-08T04:11:11;20.10;;;12.93;;
5945;SDS011;2998;48.206;16.394;2023-02-08T04:13:41;23.57;;;13.47;;
5945;SDS011;2998;48.206;16.394;2023-02-08T04:16:09;24.50;;;14.40;;
5945;SDS011;2998;48.206;16.394;2023-02-08T04:18:38;23.57;;;14.10;;
5945;SDS011;2998;48.206;16.394;2023-02-08T04:21:07;25.43;;;14.27;;
5945;SDS011;2998;48.206;16.394;2023-02-08T04:23:35;23.90;;;15.67;;
5945;SDS011;2998;48.206;16.394;2023-02-08T04:26:03;27.50;;;14.97;;
5945;SDS011;2998;48.206;16.394;2023-02-08T04:28:33;23.70;;;15.40;;
5945;SDS011;2998;48.206;16.394;2023-02-08T04:31:01;26.80;;;15.70;;
5945;SDS011;2998;48.206;16.394;2023-02-08T04:33:32;26.47;;;14.77;;
5945;SDS011;2998;48.206;16.394;2023-02-08T04:36:03;28.60;;;15.37;;
5945;SDS011;2998;48.206;16.394;2023-02-08T04:38:35;24.90;;;13.90;;
5945;SDS011;2998;48.206;16.394;2023-02-08T04:41:03;34.60;;;19.07;;
5945;SDS011;2998;48.206;16.394;2023-02-08T04:43:31;27.83;;;15.77;;
5945;SDS011;2998;48.206;16.394;2023-02-08T04:45:59;29.97;;;17.00;;
5945;SDS011;2998;48.206;16.394;2023-02-08T04:48:27;28.75;;;15.65;;
5945;SDS011;2998;48.206;16.394;2023-02-08T04:50:55;26.50;;;17.73;;
5945;SDS011;2998;48.206;16.394;2023-02-08T04:53:23;27.50;;;15.10;;
5945;SDS011;2998;48.206;16.394;2023-02-08T04:55:55;25.67;;;15.50;;
5945;SDS011;2998;48.206;16.394;2023-02-08T04:58:25;27.40;;;15.73;;
5945;SDS011;2998;48.206;16.394;2023-02-08T05:00:53;26.70;;;14.90;;
5945;SDS011;2998;48.206;16.394;2023-02-08T05:03:23;26.10;;;15.48;;
5945;SDS011;2998;48.206;16.394;2023-02-08T05:05:55;28.70;;;16.63;;
5945;SDS011;2998;48.206;16.394;2023-02-08T05:08:23;25.00;;;14.50;;
5945;SDS011;2998;48.206;16.394;2023-02-08T05:10:52;27.10;;;14.53;;
5945;SDS011;2998;48.206;16.394;2023-02-08T05:13:21;22.95;;;14.57;;
5945;SDS011;2998;48.206;16.394;2023-02-08T05:15:49;26.77;;;15.60;;
5945;SDS011;2998;48.206;16.394;2023-02-08T05:18:19;25.30;;;15.07;;
5945;SDS011;2998;48.206;16.394;2023-02-08T05:20:52;27.92;;;15.43;;
5945;SDS011;2998;48.206;16.394;2023-02-08T05:23:21;32.38;;;16.17;;
5945;SDS011;2998;48.206;16.394;2023-02-08T05:25:48;24.58;;;15.68;;
5945;SDS011;2998;48.206;16.394;2023-02-08T05:28:20;30.20;;;16.27;;
5945;SDS011;2998;48.206;16.394;2023-02-08T05:30:49;25.70;;;14.40;;
5945;SDS011;2998;48.206;16.394;2023-02-08T05:33:17;26.23;;;15.63;;
5945;SDS011;2998;48.206;16.394;2023-02-08T05:35:45;27.20;;;16.95;;
5945;SDS011;2998;48.206;16.394;2023-02-08T05:38:12;27.25;;;15.20;;
5945;SDS011;2998;48.206;16.394;2023-02-08T05:40:40;27.27;;;16.55;;
5945;SDS011;2998;48.206;16.394;2023-02-08T05:43:08;28.95;;;16.13;;
5945;SDS011;2998;48.206;16.394;2023-02-08T05:45:38;30.52;;;17.73;;
5945;SDS011;2998;48.206;16.394;2023-02-08T05:48:05;29.55;;;17.15;;
5945;SDS011;2998;48.206;16.394;2023-02-08T05:50:33;31.45;;;17.70;;
5945;SDS011;2998;48.206;16.394;2023-02-08T05:53:01;29.30;;;15.40;;
5945;SDS011;2998;48.206;16.394;2023-02-08T05:55:29;30.33;;;17.10;;
5945;SDS011;2998;48.206;16.394;2023-02-08T05:57:59;28.67;;;15.63;;
5945;SDS011;2998;48.206;16.394;2023-02-08T06:00:28;29.52;;;16.63;;
5945;SDS011;2998;48.206;16.394;2023-02-08T06:02:58;28.08;;;18.15;;
5945;SDS011;2998;48.206;16.394;2023-02-08T06:05:26;32.38;;;17.63;;
5945;SDS011;2998;48.206;16.394;2023-02-08T06:07:54;31.17;;;17.80;;
5945;SDS011;2998;48.206;16.394;2023-02-08T06:10:21;33.45;;;18.58;;
5945;SDS011;2998;48.206;16.394;2023-02-08T06:12:52;30.52;;;15.73;;
5945;SDS011;2998;48.206;16.394;2023-02-08T06:15:20;30.70;;;16.30;;
5945;SDS011;2998;48.206;16.394;2023-02-08T06:17:48;29.05;;;15.95;;
5945;SDS011;2998;48.206;16.394;2023-02-08T06:20:18;28.23;;;16.33;;
5945;SDS011;2998;48.206;16.394;2023-02-08T06:22:46;28.92;;;15.40;;
5945;SDS011;2998;48.206;16.394;2023-02-08T06:25:14;28.02;;;15.45;;
5945;SDS011;2998;48.206;16.394;2023-02-08T06:27:42;27.35;;;15.50;;
5945;SDS011;2998;48.206;16.394;2023-02-08T06:30:13;26.90;;;14.82;;
5945;SDS011;2998;48.206;16.394;2023-02-08T06:32:41;26.15;;;15.07;;
5945;SDS011;2998;48.206;16.394;2023-02-08T06:35:09;24.20;;;14.40;;
5945;SDS011;2998;48.206;16.394;2023-02-08T06:37:38;27.92;;;16.88;;
5945;SDS011;2998;48.206;16.394;2023-02-08T06:40:06;27.30;;;15.90;;
5945;SDS011;2998;48.206;16.394;2023-02-08T06:42:38;34.30;;;16.15;;
5945;SDS011;2998;48.206;16.394;2023-02-08T06:45:06;27.60;;;16.25;;
5945;SDS011;2998;48.206;16.394;2023-02-08T06:47:37;27.15;;;15.45;;
5945;SDS011;2998;48.206;16.394;2023-02-08T06:50:05;25.10;;;14.77;;
5945;SDS011;2998;48.206;16.394;2023-02-08T06:52:33;27.65;;;16.13;;
5945;SDS011;2998;48.206;16.394;2023-02-08T06:55:06;29.38;;;15.82;;
5945;SDS011;2998;48.206;16.394;2023-02-08T06:57:45;21.38;;;13.30;;
5945;SDS011;2998;48.206;16.394;2023-02-08T07:00:15;24.35;;;14.18;;
5945;SDS011;2998;48.206;16.394;2023-02-08T07:02:43;24.23;;;14.88;;
5945;SDS011;2998;48.206;16.394;2023-02-08T07:05:12;29.00;;;15.90;;
5945;SDS011;2998;48.206;16.394;2023-02-08T07:07:40;24.00;;;14.52;;
5945;SDS011;2998;48.206;16.394;2023-02-08T07:10:10;25.10;;;13.68;;
5945;SDS011;2998;48.206;16.394;2023-02-08T07:12:38;23.52;;;13.63;;
5945;SDS011;2998;48.206;16.394;2023-02-08T07:15:06;26.65;;;13.45;;
5945;SDS011;2998;48.206;16.394;2023-02-08T07:17:34;21.98;;;13.10;;
5945;SDS011;2998;48.206;16.394;2023-02-08T07:20:02;19.63;;;12.77;;
5945;SDS011;2998;48.206;16.394;2023-02-08T07:22:30;26.00;;;14.80;;
5945;SDS011;2998;48.206;16.394;2023-02-08T07:24:58;18.92;;;12.50;;
5945;SDS011;2998;48.206;16.394;2023-02-08T07:27:28;23.33;;;13.00;;
5945;SDS011;2998;48.206;16.394;2023-02-08T07:30:01;21.60;;;13.45;;
5945;SDS011;2998;48.206;16.394;2023-02-08T07:32:33;22.95;;;13.60;;
5945;SDS011;2998;48.206;16.394;2023-02-08T07:35:01;22.92;;;14.68;;
5945;SDS011;2998;48.206;16.394;2023-02-08T07:37:32;23.67;;;14.20;;
5945;SDS011;2998;48.206;16.394;2023-02-08T07:40:00;23.73;;;14.30;;
5945;SDS011;2998;48.206;16.394;2023-02-08T07:42:29;19.25;;;13.35;;
5945;SDS011;2998;48.206;16.394;2023-02-08T07:44:57;21.77;;;13.00;;
5945;SDS011;2998;48.206;16.394;2023-02-08T07:47:28;18.90;;;13.60;;
5945;SDS011;2998;48.206;16.394;2023-02-08T07:49:59;20.70;;;12.00;;
5945;SDS011;2998;48.206;16.394;2023-02-08T07:52:27;19.00;;;12.00;;
5945;SDS011;2998;48.206;16.394;2023-02-08T07:54:55;26.87;;;13.43;;
5945;SDS011;2998;48.206;16.394;2023-02-08T07:57:23;17.87;;;11.50;;
5945;SDS011;2998;48.206;16.394;2023-02-08T07:59:54;20.83;;;14.27;;
5945;SDS011;2998;48.206;16.394;2023-02-08T08:02:22;25.10;;;15.13;;
5945;SDS011;2998;48.206;16.394;2023-02-08T08:04:50;23.50;;;12.90;;
5945;SDS011;2998;48.206;16.394;2023-02-08T08:07:19;18.73;;;13.20;;
5945;SDS011;2998;48.206;16.394;2023-02-08T08:09:47;23.40;;;13.10;;
5945;SDS011;2998;48.206;16.394;2023-02-08T08:12:18;23.13;;;13.37;;
5945;SDS011;2998;48.206;16.394;2023-02-08T08:14:46;20.00;;;11.80;;
5945;SDS011;2998;48.206;16.394;2023-02-08T08:17:17;20.10;;;12.83;;
5945;SDS011;2998;48.206;16.394;2023-02-08T08:19:47;21.93;;;12.43;;
5945;SDS011;2998;48.206;16.394;2023-02-08T08:22:18;30.47;;;14.60;;
5945;SDS011;2998;48.206;16.394;2023-02-08T08:24:48;19.60;;;12.53;;
5945;SDS011;2998;48.206;16.394;2023-02-08T08:27:16;20.27;;;12.80;;
5945;SDS011;2998;48.206;16.394;2023-02-08T08:29:44;17.80;;;12.37;;
5945;SDS011;2998;48.206;16.394;2023-02-08T08:32:16;22.90;;;12.60;;
5945;SDS011;2998;48.206;16.394;2023-02-08T08:34:45;15.93;;;12.07;;
5945;SDS011;2998;48.206;16.394;2023-02-08T08:37:15;18.77;;;11.97;;
5945;SDS011;2998;48.206;16.394;2023-02-08T08:39:43;19.30;;;12.87;;
5945;SDS011;2998;48.206;16.394;2023-02-08T08:42:11;20.23;;;14.30;;
5945;SDS011;2998;48.206;16.394;2023-02-08T08:44:39;26.13;;;13.07;;
5945;SDS011;2998;48.206;16.394;2023-02-08T08:47:07;15.97;;;11.13;;
5945;SDS011;2998;48.206;16.394;2023-02-08T08:49:39;23.60;;;13.10;;
5945;SDS011;2998;48.206;16.394;2023-02-08T08:52:08;17.00;;;11.57;;
5945;SDS011;2998;48.206;16.394;2023-02-08T08:54:38;22.80;;;11.80;;
5945;SDS011;2998;48.206;16.394;2023-02-08T08:57:06;20.50;;;11.57;;
5945;SDS011;2998;48.206;16.394;2023-02-08T08:59:34;22.10;;;12.33;;
5945;SDS011;2998;48.206;16.394;2023-02-08T09:02:05;26.30;;;12.93;;
5945;SDS011;2998;48.206;16.394;2023-02-08T09:04:33;17.30;;;10.53;;
5945;SDS011;2998;48.206;16.394;2023-02-08T09:07:02;24.37;;;10.63;;
5945;SDS011;2998;48.206;16.394;2023-02-08T09:09:30;23.70;;;12.67;;
5945;SDS011;2998;48.206;16.394;2023-02-08T09:11:58;16.90;;;12.53;;
5945;SDS011;2998;48.206;16.394;2023-02-08T09:14:26;33.47;;;12.07;;
5945;SDS011;2998;48.206;16.394;2023-02-08T09:16:57;19.60;;;10.70;;
5945;SDS011;2998;48.206;16.394;2023-02-08T09:19:25;14.70;;;9.40;;
5945;SDS011;2998;48.206;16.394;2023-02-08T09:21:54;13.13;;;8.70;;
5945;SDS011;2998;48.206;16.394;2023-02-08T09:24:27;13.40;;;8.67;;
5945;SDS011;2998;48.206;16.394;2023-02-08T09:26:55;29.93;;;8.13;;
5945;SDS011;2998;48.206;16.394;2023-02-08T09:29:23;13.30;;;8.30;;
5945;SDS011;2998;48.206;16.394;2023-02-08T09:31:54;14.10;;;8.00;;
5945;SDS011;2998;48.206;16.394;2023-02-08T09:34:22;10.00;;;7.37;;
5945;SDS011;2998;48.206;16.394;2023-02-08T09:36:50;9.37;;;6.90;;
5945;SDS011;2998;48.206;16.394;2023-02-08T09:39:21;11.50;;;6.97;;
5945;SDS011;2998;48.206;16.394;2023-02-08T09:42:00;15.70;;;7.70;;
5945;SDS011;2998;48.206;16.394;2023-02-08T09:44:35;8.97;;;5.70;;
5945;SDS011;2998;48.206;16.394;2023-02-08T09:47:09;14.13;;;10.63;;
5945;SDS011;2998;48.206;16.394;2023-02-08T09:49:42;14.10;;;6.43;;
5945;SDS011;2998;48.206;16.394;2023-02-08T09:52:20;10.20;;;7.73;;
5945;SDS011;2998;48.206;16.394;2023-02-08T09:54:56;13.50;;;8.20;;
5945;SDS011;2998;48.206;16.394;2023-02-08T09:57:27;10.97;;;7.07;;
5945;SDS011;2998;48.206;16.394;2023-02-08T10:00:02;14.03;;;6.63;;
5945;SDS011;2998;48.206;16.394;2023-02-08T10:02:37;8.80;;;6.57;;
5945;SDS011;2998;48.206;16.394;2023-02-08T10:05:08;13.47;;;6.93;;
5945;SDS011;2998;48.206;16.394;2023-02-08T10:07:38;12.93;;;7.90;;
5945;SDS011;2998;48.206;16.394;2023-02-08T10:10:11;10.83;;;7.07;;
5945;SDS011;2998;48.206;16.394;2023-02-08T10:12:45;15.27;;;6.87;;
5945;SDS011;2998;48.206;16.394;2023-02-08T10:15:20;9.40;;;6.60;;
5945;SDS011;2998;48.206;16.394;2023-02-08T10:18:05;8.83;;;6.90;;
5945;SDS011;2998;48.206;16.394;2023-02-08T10:20:49;12.70;;;7.20;;
5945;SDS011;2998;48.206;16.394;2023-02-08T10:23:29;8.60;;;6.00;;
5945;SDS011;2998;48.206;16.394;2023-02-08T10:26:12;8.33;;;7.33;;
5945;SDS011;2998;48.206;16.394;2023-02-08T10:28:45;10.20;;;6.20;;
5945;SDS011;2998;48.206;16.394;2023-02-08T10:31:30;6.00;;;5.20;;
5945;SDS011;2998;48.206;16.394;2023-02-08T10:34:10;10.20;;;5.43;;
5945;SDS011;2998;48.206;16.394;2023-02-08T10:36:47;7.17;;;6.43;;
5945;SDS011;2998;48.206;16.394;2023-02-08T10:39:21;7.43;;;4.80;;
5945;SDS011;2998;48.206;16.394;2023-02-08T10:42:01;8.07;;;4.90;;
5945;SDS011;2998;48.206;16.394;2023-02-08T10:44:32;7.27;;;5.13;;
5945;SDS011;2998;48.206;16.394;2023-02-08T10:47:06;9.27;;;4.57;;
5945;SDS011;2998;48.206;16.394;2023-02-08T10:49:39;13.70;;;4.67;;
5945;SDS011;2998;48.206;16.394;2023-02-08T10:52:15;4.50;;;4.10;;
5945;SDS011;2998;48.206;16.394;2023-02-08T10:54:43;5.47;;;4.83;;
5945;SDS011;2998;48.206;16.394;2023-02-08T10:57:15;10.80;;;5.37;;
5945;SDS011;2998;48.206;16.394;2023-02-08T10:59:45;8.87;;;4.63;;
5945;SDS011;2998;48.206;16.394;2023-02-08T11:02:19;8.27;;;5.33;;
5945;SDS011;2998;48.206;16.394;2023-02-08T11:04:58;6.40;;;4.80;;
5945;SDS011;2998;48.206;16.394;2023-02-08T11:07:28;4.37;;;3.57;;
5945;SDS011;2998;48.206;16.394;2023-02-08T11:10:11;5.13;;;4.30;;
5945;SDS011;2998;48.206;16.394;2023-02-08T11:12:54;5.50;;;3.23;;
5945;SDS011;2998;48.206;16.394;2023-02-08T11:15:36;4.40;;;4.00;;
5945;SDS011;2998;48.206;16.394;2023-02-08T11:18:12;5.80;;;4.00;;
5945;SDS011;2998;48.206;16.394;2023-02-08T11:20:47;5.73;;;3.60;;
5945;SDS011;2998;48.206;16.394;2023-02-08T11:23:20;6.83;;;3.90;;
5945;SDS011;2998;48.206;16.394;2023-02-08T11:25:50;7.17;;;4.70;;
5945;SDS011;2998;48.206;16.394;2023-02-08T11:28:27;4.50;;;3.53;;
5945;SDS011;2998;48.206;16.394;2023-02-08T11:30:58;6.77;;;4.30;;
5945;SDS011;2998;48.206;16.394;2023-02-08T11:33:30;7.43;;;4.70;;
5945;SDS011;2998;48.206;16.394;2023-02-08T11:35:59;7.33;;;4.43;;
5945;SDS011;2998;48.206;16.394;2023-02-08T11:38:31;13.83;;;5.13;;
5945;SDS011;2998;48.206;16.394;2023-02-08T11:41:03;4.70;;;4.27;;
5945;SDS011;2998;48.206;16.394;2023-02-08T11:43:34;6.00;;;4.67;;
5945;SDS011;2998;48.206;16.394;2023-02-08T11:46:02;7.73;;;5.90;;
5945;SDS011;2998;48.206;16.394;2023-02-08T11:48:35;4.50;;;3.57;;
5945;SDS011;2998;48.206;16.394;2023-02-08T11:51:07;7.00;;;5.23;;
5945;SDS011;2998;48.206;16.394;2023-02-08T11:53:36;12.13;;;4.93;;
5945;SDS011;2998;48.206;16.394;2023-02-08T11:56:13;6.40;;;4.20;;
5945;SDS011;2998;48.206;16.394;2023-02-08T11:59:03;10.30;;;6.57;;
5945;SDS011;2998;48.206;16.394;2023-02-08T12:01:34;5.80;;;5.20;;
5945;SDS011;2998;48.206;16.394;2023-02-08T12:04:03;8.80;;;6.27;;
5945;SDS011;2998;48.206;16.394;2023-02-08T12:09:51;5.13;;;4.63;;
5945;SDS011;2998;48.206;16.394;2023-02-08T12:12:42;6.57;;;5.87;;
5945;SDS011;2998;48.206;16.394;2023-02-08T12:15:23;9.07;;;5.53;;
5945;SDS011;2998;48.206;16.394;2023-02-08T12:18:03;10.70;;;6.90;;
5945;SDS011;2998;48.206;16.394;2023-02-08T12:20:39;7.23;;;5.77;;
5945;SDS011;2998;48.206;16.394;2023-02-08T12:26:14;13.83;;;7.40;;
5945;SDS011;2998;48.206;16.394;2023-02-08T12:28:52;6.30;;;5.70;;
5945;SDS011;2998;48.206;16.394;2023-02-08T12:31:30;11.97;;;7.13;;
5945;SDS011;2998;48.206;16.394;2023-02-08T12:34:06;8.13;;;5.80;;
5945;SDS011;2998;48.206;16.394;2023-02-08T12:36:43;10.77;;;5.53;;
5945;SDS011;2998;48.206;16.394;2023-02-08T12:39:41;5.70;;;5.20;;
5945;SDS011;2998;48.206;16.394;2023-02-08T12:42:36;6.57;;;5.53;;
5945;SDS011;2998;48.206;16.394;2023-02-08T12:45:15;6.37;;;5.00;;
5945;SDS011;2998;48.206;16.394;2023-02-08T12:48:17;249.77;;;20.43;;
5945;SDS011;2998;48.206;16.394;2023-02-08T12:50:50;8.53;;;6.73;;
5945;SDS011;2998;48.206;16.394;2023-02-08T12:53:23;8.30;;;5.33;;
5945;SDS011;2998;48.206;16.394;2023-02-08T12:55:56;11.77;;;6.47;;
5945;SDS011;2998;48.206;16.394;2023-02-08T12:58:26;5.97;;;5.00;;
5945;SDS011;2998;48.206;16.394;2023-02-08T13:00:56;6.60;;;6.00;;
5945;SDS011;2998;48.206;16.394;2023-02-08T13:03:32;7.27;;;5.70;;
5945;SDS011;2998;48.206;16.394;2023-02-08T13:06:03;16.37;;;9.73;;
5945;SDS011;2998;48.206;16.394;2023-02-08T13:08:34;30.30;;;15.50;;
5945;SDS011;2998;48.206;16.394;2023-02-08T13:11:04;7.67;;;6.10;;
5945;SDS011;2998;48.206;16.394;2023-02-08T13:13:47;11.17;;;6.37;;
5945;SDS011;2998;48.206;16.394;2023-02-08T13:16:23;8.67;;;6.40;;
5945;SDS011;2998;48.206;16.394;2023-02-08T13:18:54;9.57;;;7.23;;
5945;SDS011;2998;48.206;16.394;2023-02-08T13:21:31;20.47;;;8.50;;
5945;SDS011;2998;48.206;16.394;2023-02-08T13:24:04;11.00;;;6.67;;
5945;SDS011;2998;48.206;16.394;2023-02-08T13:26:33;17.33;;;9.40;;
5945;SDS011;2998;48.206;16.394;2023-02-08T13:29:02;58.40;;;25.87;;
5945;SDS011;2998;48.206;16.394;2023-02-08T13:31:31;11.80;;;8.00;;
5945;SDS011;2998;48.206;16.394;2023-02-08T13:34:03;9.30;;;6.67;;
5945;SDS011;2998;48.206;16.394;2023-02-08T13:36:34;11.73;;;7.67;;
5945;SDS011;2998;48.206;16.394;2023-02-08T13:39:04;12.30;;;7.70;;
5945;SDS011;2998;48.206;16.394;2023-02-08T13:41:34;8.93;;;7.10;;
5945;SDS011;2998;48.206;16.394;2023-02-08T13:44:03;12.33;;;7.23;;
5945;SDS011;2998;48.206;16.394;2023-02-08T13:46:34;12.17;;;7.30;;
5945;SDS011;2998;48.206;16.394;2023-02-08T13:49:05;14.57;;;8.30;;
5945;SDS011;2998;48.206;16.394;2023-02-08T13:51:52;9.60;;;7.50;;
5945;SDS011;2998;48.206;16.394;2023-02-08T13:54:20;10.73;;;7.50;;
5945;SDS011;2998;48.206;16.394;2023-02-08T13:56:49;9.23;;;6.97;;
5945;SDS011;2998;48.206;16.394;2023-02-08T13:59:25;10.17;;;7.17;;
5945;SDS011;2998;48.206;16.394;2023-02-08T14:08:05;57.73;;;24.03;;
5945;SDS011;2998;48.206;16.394;2023-02-08T14:10:37;9.53;;;7.37;;
5945;SDS011;2998;48.206;16.394;2023-02-08T14:13:15;14.60;;;8.57;;
5945;SDS011;2998;48.206;16.394;2023-02-08T14:18:56;12.93;;;8.07;;
5945;SDS011;2998;48.206;16.394;2023-02-08T14:21:42;11.70;;;6.60;;
5945;SDS011;2998;48.206;16.394;2023-02-08T14:24:18;13.90;;;9.00;;
5945;SDS011;2998;48.206;16.394;2023-02-08T14:26:47;10.80;;;7.13;;
5945;SDS011;2998;48.206;16.394;2023-02-08T14:29:18;12.00;;;7.73;;
5945;SDS011;2998;48.206;16.394;2023-02-08T14:31:48;11.60;;;7.67;;
5945;SDS011;2998;48.206;16.394;2023-02-08T14:34:21;7.23;;;6.37;;
5945;SDS011;2998;48.206;16.394;2023-02-08T14:37:02;8.13;;;7.07;;
5945;SDS011;2998;48.206;16.394;2023-02-08T14:39:32;12.43;;;7.10;;
5945;SDS011;2998;48.206;16.394;2023-02-08T14:42:02;10.73;;;7.77;;
5945;SDS011;2998;48.206;16.394;2023-02-08T14:50:34;10.90;;;7.73;;
5945;SDS011;2998;48.206;16.394;2023-02-08T14:53:13;10.40;;;7.33;;
5945;SDS011;2998;48.206;16.394;2023-02-08T14:55:54;16.40;;;10.13;;
5945;SDS011;2998;48.206;16.394;2023-02-08T14:58:26;15.33;;;9.70;;
5945;SDS011;2998;48.206;16.394;2023-02-08T15:00:56;31.33;;;12.53;;
5945;SDS011;2998;48.206;16.394;2023-02-08T15:03:29;16.73;;;11.10;;
5945;SDS011;2998;48.206;16.394;2023-02-08T15:09:17;15.03;;;10.50;;
5945;SDS011;2998;48.206;16.394;2023-02-08T15:11:48;16.50;;;10.43;;
5945;SDS011;2998;48.206;16.394;2023-02-08T15:14:18;11.97;;;9.37;;
5945;SDS011;2998;48.206;16.394;2023-02-08T15:16:47;17.20;;;10.23;;
5945;SDS011;2998;48.206;16.394;2023-02-08T15:19:19;20.33;;;9.60;;
5945;SDS011;2998;48.206;16.394;2023-02-08T15:21:49;17.70;;;10.50;;
5945;SDS011;2998;48.206;16.394;2023-02-08T15:24:19;18.33;;;11.20;;
5945;SDS011;2998;48.206;16.394;2023-02-08T15:26:48;16.77;;;10.60;;
5945;SDS011;2998;48.206;16.394;2023-02-08T15:29:19;19.87;;;11.33;;
5945;SDS011;2998;48.206;16.394;2023-02-08T15:31:55;16.23;;;9.53;;
5945;SDS011;2998;48.206;16.394;2023-02-08T15:34:24;18.17;;;10.70;;
5945;SDS011;2998;48.206;16.394;2023-02-08T15:36:53;21.57;;;11.00;;